Time;durP1;ratioP1;P1;durP2;ratioP2;P2;SDS_P1;SDS_P2;PMS_P1;PMS_P2;Temp;Humidity;BMP_temperature;BMP_pressure;BME280_temperature;BME280_humidity;BME280_pressure;Samples;Min_cycle;Max_cycle;Signal;HPM_P1;HPM_P2
2022/11/17 00:00:37;;;;;;;;;;;10.70;99.90;;;;;;5050714;28;20316;-79
2022/11/17 00:03:05;;;;;;;;;;;10.60;99.90;;;;;;5042641;28;19936;-79
2022/11/17 00:05:36;;;;;;;;;;;;;;;;;;5049287;28;20190;-80
2022/11/17 00:08:03;;;;;;;;;;;10.60;99.90;;;;;;5047368;28;20031;-80
2022/11/17 00:10:30;;;;;;;;;;;10.60;99.90;;;;;;5050815;28;19936;-79
2022/11/17 00:15:42;;;;;;;;;;;10.60;99.90;;;;;;5047598;28;20809;-79
2022/11/17 00:23:48;;;;;;;;;;;10.60;99.90;;;;;;5037734;28;19921;-80
2022/11/17 00:26:15;;;;;;;;;;;10.60;99.90;;;;;;5042605;28;19925;-81
2022/11/17 00:28:42;;;;;;;;;;;10.60;99.90;;;;;;5043151;28;20008;-81
2022/11/17 00:34:05;;;;;;;;;;;10.60;99.90;;;;;;5046728;28;19995;-81
2022/11/17 00:36:32;;;;;;;;;;;10.60;99.90;;;;;;5041108;28;19932;-80
2022/11/17 00:38:59;;;;;;;;;;;10.70;99.90;;;;;;5038651;28;19976;-81
2022/11/17 00:41:26;;;;;;;;;;;10.70;99.90;;;;;;5042703;28;19974;-81
2022/11/17 00:43:52;;;;;;;;;;;10.70;99.90;;;;;;5039859;28;19991;-81
2022/11/17 00:46:19;;;;;;;;;;;10.60;99.90;;;;;;5060779;28;19929;-81
2022/11/17 00:48:48;;;;;;;;;;;10.70;99.90;;;;;;5048872;28;20426;-81
2022/11/17 00:51:18;;;;;;;;;;;10.60;99.90;;;;;;5046729;28;20403;-82
2022/11/17 00:53:46;;;;;;;;;;;10.60;99.90;;;;;;5044565;28;19948;-80
2022/11/17 00:56:18;;;;;;;;;;;10.60;99.90;;;;;;5054350;28;19929;-82
2022/11/17 00:58:46;;;;;;;;;;;10.50;99.90;;;;;;5045408;28;19925;-82
2022/11/17 01:01:13;;;;;;;;;;;10.50;99.90;;;;;;5033672;28;19932;-81
2022/11/17 01:03:40;;;;;;;;;;;10.50;99.90;;;;;;5040092;28;19999;-81
2022/11/17 01:06:09;;;;;;;;;;;10.40;99.90;;;;;;5047436;28;19939;-81
2022/11/17 01:08:37;;;;;;;;;;;10.40;99.90;;;;;;5038810;28;20012;-80
2022/11/17 01:11:07;;;;;;;;;;;10.40;99.90;;;;;;5039648;28;20418;-80
2022/11/17 01:13:34;;;;;;;;;;;10.40;99.90;;;;;;5033148;28;19933;-81
2022/11/17 01:16:05;;;;;;;;;;;10.40;99.90;;;;;;5048569;28;20001;-82
2022/11/17 01:18:32;;;;;;;;;;;10.40;99.90;;;;;;5035535;28;19952;-80
2022/11/17 01:21:03;;;;;;;;;;;10.30;99.90;;;;;;5042950;28;19941;-81
2022/11/17 01:23:32;;;;;;;;;;;10.30;99.90;;;;;;5040298;28;19928;-81
2022/11/17 01:26:05;;;;;;;;;;;10.30;99.90;;;;;;5066595;28;19936;-82
2022/11/17 01:28:32;;;;;;;;;;;10.30;99.90;;;;;;5051672;28;19948;-81
2022/11/17 01:30:59;;;;;;;;;;;10.30;99.90;;;;;;5048024;28;19929;-81
2022/11/17 01:33:26;;;;;;;;;;;10.30;99.90;;;;;;5044347;28;20335;-81
2022/11/17 01:35:53;;;;;;;;;;;10.40;99.90;;;;;;5043423;28;19979;-80
2022/11/17 01:38:20;;;;;;;;;;;10.30;99.90;;;;;;5069572;28;19928;-80
2022/11/17 01:40:47;;;;;;;;;;;10.30;99.90;;;;;;5044074;28;20366;-79
2022/11/17 01:43:15;;;;;;;;;;;10.30;99.90;;;;;;5046122;28;20388;-81
2022/11/17 01:45:42;;;;;;;;;;;10.30;99.90;;;;;;5033043;28;19939;-81
2022/11/17 01:48:10;;;;;;;;;;;10.30;99.90;;;;;;5047211;28;19931;-84
2022/11/17 01:50:39;;;;;;;;;;;10.30;99.90;;;;;;5051684;28;19925;-82
2022/11/17 01:53:08;;;;;;;;;;;10.30;99.90;;;;;;5049759;28;20003;-81
2022/11/17 01:55:37;;;;;;;;;;;10.30;99.90;;;;;;5046886;28;19925;-81
2022/11/17 01:58:06;;;;;;;;;;;10.30;99.90;;;;;;5045770;28;19991;-80
2022/11/17 02:00:34;;;;;;;;;;;10.30;99.90;;;;;;5034587;28;19926;-82
2022/11/17 02:03:05;;;;;;;;;;;10.30;99.90;;;;;;5066052;28;20484;-81
2022/11/17 02:05:40;;;;;;;;;;;10.30;99.90;;;;;;5050053;28;19928;-81
2022/11/17 02:08:07;;;;;;;;;;;10.20;99.90;;;;;;5068000;28;20023;-81
2022/11/17 02:10:35;;;;;;;;;;;10.30;99.90;;;;;;5041378;28;20316;-81
2022/11/17 02:13:02;;;;;;;;;;;10.30;99.90;;;;;;5049630;28;20043;-81
2022/11/17 02:15:29;;;;;;;;;;;10.30;99.90;;;;;;5038406;28;19928;-81
2022/11/17 02:17:58;;;;;;;;;;;10.30;99.90;;;;;;5037992;28;19975;-80
2022/11/17 02:20:31;;;;;;;;;;;10.30;99.90;;;;;;5044038;28;19944;-80
2022/11/17 02:23:25;;;;;;;;;;;10.20;99.90;;;;;;5064749;28;19925;-80
2022/11/17 02:26:08;;;;;;;;;;;10.20;99.90;;;;;;5025172;28;19986;-80
2022/11/17 02:28:37;;;;;;;;;;;10.30;99.90;;;;;;5036867;28;20100;-80
2022/11/17 02:31:12;;;;;;;;;;;10.30;99.90;;;;;;5048780;28;20379;-80
2022/11/17 02:33:45;;;;;;;;;;;10.30;99.90;;;;;;5041611;28;19937;-79
2022/11/17 02:36:16;;;;;;;;;;;10.30;99.90;;;;;;5039022;28;20373;-80
2022/11/17 02:38:49;;;;;;;;;;;10.30;99.90;;;;;;5045501;28;19928;-80
2022/11/17 02:41:21;;;;;;;;;;;10.30;99.90;;;;;;5033683;28;19929;-80
2022/11/17 02:44:02;;;;;;;;;;;10.30;99.90;;;;;;5039231;28;19925;-80
2022/11/17 02:46:31;;;;;;;;;;;12.20;99.90;;;;;;5043234;28;19933;-82
2022/11/17 02:49:00;;;;;;;;;;;10.30;99.90;;;;;;5069530;28;19936;-83
2022/11/17 02:51:28;;;;;;;;;;;10.30;99.90;;;;;;5042812;28;19956;-84
2022/11/17 02:53:56;;;;;;;;;;;10.30;99.90;;;;;;5051685;28;20531;-86
2022/11/17 02:56:23;;;;;;;;;;;10.30;99.90;;;;;;5048642;28;19929;-85
2022/11/17 02:58:54;;;;;;;;;;;10.30;99.90;;;;;;5054761;28;19971;-82
2022/11/17 03:01:32;;;;;;;;;;;10.30;99.90;;;;;;5052871;28;20412;-87
2022/11/17 03:04:09;;;;;;;;;;;10.30;99.90;;;;;;5062625;28;19937;-84
2022/11/17 03:06:41;;;;;;;;;;;10.30;99.90;;;;;;5042946;28;19998;-82
2022/11/17 03:09:13;;;;;;;;;;;10.30;99.90;;;;;;5042666;28;19933;-80
2022/11/17 03:11:44;;;;;;;;;;;10.30;99.90;;;;;;5064420;28;19937;-87
2022/11/17 03:14:19;;;;;;;;;;;10.30;99.90;;;;;;5067914;28;20261;-81
2022/11/17 03:16:50;;;;;;;;;;;10.20;99.90;;;;;;5066207;28;19983;-82
2022/11/17 03:19:18;;;;;;;;;;;10.30;99.90;;;;;;5042697;28;19990;-84
2022/11/17 03:21:48;;;;;;;;;;;10.30;99.90;;;;;;5064880;28;20116;-83
2022/11/17 03:24:21;;;;;;;;;;;10.30;99.90;;;;;;5050861;28;19928;-85
2022/11/17 03:26:51;;;;;;;;;;;10.30;99.90;;;;;;5053047;28;20369;-80
2022/11/17 03:29:22;;;;;;;;;;;9.20;99.90;;;;;;5043174;28;19950;-79
2022/11/17 03:31:50;;;;;;;;;;;10.30;99.90;;;;;;5037826;28;19984;-83
2022/11/17 03:34:18;;;;;;;;;;;10.20;99.90;;;;;;5069165;28;19950;-84
2022/11/17 03:36:48;;;;;;;;;;;10.30;99.90;;;;;;5067700;28;20370;-80
2022/11/17 03:39:19;;;;;;;;;;;10.20;99.90;;;;;;5044427;28;19948;-80
2022/11/17 03:41:47;;;;;;;;;;;10.30;99.90;;;;;;5051706;28;19936;-82
2022/11/17 03:44:23;;;;;;;;;;;10.30;99.90;;;;;;5034757;28;19932;-83
2022/11/17 03:46:52;;;;;;;;;;;10.30;99.90;;;;;;5066879;28;19935;-82
2022/11/17 03:49:22;;;;;;;;;;;10.30;99.90;;;;;;5066858;28;20295;-82
2022/11/17 03:51:51;;;;;;;;;;;10.30;99.90;;;;;;5041809;28;20335;-83
2022/11/17 03:54:18;;;;;;;;;;;10.30;99.90;;;;;;5042119;28;20431;-83
2022/11/17 03:56:50;;;;;;;;;;;10.30;99.90;;;;;;5047045;28;19932;-83
2022/11/17 03:59:18;;;;;;;;;;;10.20;99.90;;;;;;5045763;28;19925;-83
2022/11/17 04:01:47;;;;;;;;;;;11.40;99.90;;;;;;5042239;28;19975;-83
2022/11/17 04:04:14;;;;;;;;;;;10.10;99.90;;;;;;5050532;28;20388;-83
2022/11/17 04:06:41;;;;;;;;;;;10.00;99.90;;;;;;5046646;28;19929;-83
2022/11/17 04:09:08;;;;;;;;;;;9.90;99.90;;;;;;5041666;28;19925;-83
2022/11/17 04:17:21;;;;;;;;;;;9.90;99.90;;;;;;5018479;28;19940;-82
2022/11/17 04:19:48;;;;;;;;;;;10.00;99.90;;;;;;5027575;28;20043;-83
2022/11/17 04:22:15;;;;;;;;;;;10.00;99.90;;;;;;5038202;28;19933;-82
2022/11/17 04:24:42;;;;;;;;;;;10.00;99.90;;;;;;5056337;28;19928;-82
2022/11/17 04:30:14;;;;;;;;;;;10.00;99.90;;;;;;5008589;28;19925;-82
2022/11/17 04:32:42;;;;;;;;;;;10.00;99.90;;;;;;5007553;28;20405;-83
2022/11/17 04:35:09;;;;;;;;;;;10.00;99.90;;;;;;5025022;28;19929;-82
2022/11/17 04:37:36;;;;;;;;;;;10.00;99.90;;;;;;5041816;28;20281;-82
2022/11/17 04:40:03;;;;;;;;;;;10.00;99.90;;;;;;5046649;28;19977;-82
2022/11/17 04:42:29;;;;;;;;;;;9.90;99.90;;;;;;5044653;28;19979;-82
2022/11/17 04:44:56;;;;;;;;;;;10.00;99.90;;;;;;5047063;28;19987;-81
2022/11/17 04:47:23;;;;;;;;;;;10.00;99.90;;;;;;5046601;28;19929;-84
2022/11/17 04:49:51;;;;;;;;;;;9.90;99.90;;;;;;5041489;28;19929;-86
2022/11/17 04:52:18;;;;;;;;;;;9.90;99.90;;;;;;5056350;28;19982;-85
2022/11/17 04:54:45;;;;;;;;;;;10.00;99.90;;;;;;5039981;28;19925;-80
2022/11/17 04:57:12;;;;;;;;;;;10.00;99.90;;;;;;5044736;28;19929;-84
2022/11/17 04:59:38;;;;;;;;;;;9.90;99.90;;;;;;5042920;28;20021;-85
2022/11/17 05:02:05;;;;;;;;;;;9.90;99.90;;;;;;5036181;28;19940;-85
2022/11/17 05:07:18;;;;;;;;;;;10.00;99.90;;;;;;5050351;28;20355;-84
2022/11/17 05:09:45;;;;;;;;;;;10.00;99.90;;;;;;5046649;28;19933;-85
2022/11/17 05:14:56;;;;;;;;;;;10.20;99.90;;;;;;5049337;28;20329;-85
2022/11/17 05:17:22;;;;;;;;;;;10.30;99.90;;;;;;5047117;28;20493;-82
2022/11/17 05:19:49;;;;;;;;;;;10.30;99.90;;;;;;5064035;28;20012;-84
2022/11/17 05:25:03;;;;;;;;;;;10.40;99.90;;;;;;5058195;28;19921;-85
2022/11/17 05:27:30;;;;;;;;;;;10.40;99.90;;;;;;5038979;28;19925;-83
2022/11/17 05:29:57;;;;;;;;;;;10.30;99.90;;;;;;5045263;28;19931;-86
2022/11/17 05:32:24;;;;;;;;;;;10.30;99.90;;;;;;5042966;28;19929;-84
2022/11/17 05:34:51;;;;;;;;;;;10.30;99.90;;;;;;5046517;28;19924;-84
2022/11/17 05:37:19;;;;;;;;;;;10.20;99.90;;;;;;5068123;28;19983;-84
2022/11/17 05:39:52;;;;;;;;;;;10.20;99.90;;;;;;5067352;28;19939;-85
2022/11/17 05:42:20;;;;;;;;;;;10.20;99.90;;;;;;5070174;28;20349;-84
2022/11/17 05:44:48;;;;;;;;;;;10.20;99.90;;;;;;5067873;28;19929;-85
2022/11/17 05:47:15;;;;;;;;;;;10.20;99.90;;;;;;5050162;28;20361;-86
2022/11/17 05:49:42;;;;;;;;;;;10.10;99.90;;;;;;5052634;28;20130;-81
2022/11/17 05:52:10;;;;;;;;;;;10.10;99.90;;;;;;5061727;28;20042;-80
2022/11/17 05:54:38;;;;;;;;;;;10.20;99.90;;;;;;5055560;28;20586;-82
2022/11/17 05:57:09;;;;;;;;;;;10.10;99.90;;;;;;5050198;28;19936;-81
2022/11/17 05:59:39;;;;;;;;;;;10.10;99.90;;;;;;5044735;28;19983;-78
2022/11/17 06:02:06;;;;;;;;;;;;;;;;;;5041275;28;19929;-78
2022/11/17 06:04:33;;;;;;;;;;;10.10;99.90;;;;;;5046672;28;19935;-77
2022/11/17 06:07:00;;;;;;;;;;;10.20;99.90;;;;;;5034535;28;19929;-77
2022/11/17 06:09:29;;;;;;;;;;;10.20;99.90;;;;;;5051974;28;19925;-78
2022/11/17 06:11:56;;;;;;;;;;;;;;;;;;5047483;28;19932;-83
2022/11/17 06:14:23;;;;;;;;;;;10.20;99.90;;;;;;5056822;28;19928;-83
2022/11/17 06:16:55;;;;;;;;;;;10.30;99.90;;;;;;5042844;28;19960;-80
2022/11/17 06:19:24;;;;;;;;;;;10.20;99.90;;;;;;5042789;28;20346;-79
2022/11/17 06:21:54;;;;;;;;;;;10.30;99.90;;;;;;5046814;28;20545;-78
2022/11/17 06:24:24;;;;;;;;;;;10.20;99.90;;;;;;5048797;28;19939;-79
2022/11/17 06:26:52;;;;;;;;;;;10.30;99.90;;;;;;5048388;28;19929;-80
2022/11/17 06:29:19;;;;;;;;;;;10.30;99.90;;;;;;5038714;28;20478;-82
2022/11/17 06:31:47;;;;;;;;;;;10.30;99.90;;;;;;5051053;28;20254;-80
2022/11/17 06:34:15;;;;;;;;;;;10.30;99.90;;;;;;5048387;28;19929;-81
2022/11/17 06:36:42;;;;;;;;;;;10.30;99.90;;;;;;5062197;22;20308;-80
2022/11/17 06:39:09;;;;;;;;;;;10.30;99.90;;;;;;5069670;28;20030;-80
2022/11/17 06:41:36;;;;;;;;;;;10.30;99.90;;;;;;5085678;28;19928;-82
2022/11/17 06:44:03;;;;;;;;;;;10.30;99.90;;;;;;5053071;28;19925;-81
2022/11/17 06:46:36;;;;;;;;;;;10.30;99.90;;;;;;5084826;28;19981;-81
2022/11/17 06:49:04;;;;;;;;;;;10.30;99.90;;;;;;5076906;28;20389;-83
2022/11/17 06:51:32;;;;;;;;;;;10.30;99.90;;;;;;5063670;28;19939;-81
2022/11/17 06:53:59;;;;;;;;;;;10.30;99.90;;;;;;5080366;28;19947;-81
2022/11/17 06:56:25;;;;;;;;;;;10.30;99.90;;;;;;5084754;28;19932;-82
2022/11/17 06:58:54;;;;;;;;;;;10.30;99.90;;;;;;5057074;28;19935;-81
2022/11/17 07:01:20;;;;;;;;;;;10.30;99.90;;;;;;5076122;28;19928;-81
2022/11/17 07:03:47;;;;;;;;;;;10.30;99.90;;;;;;5077133;28;19924;-81
2022/11/17 07:06:14;;;;;;;;;;;10.30;99.90;;;;;;5050170;28;19924;-82
2022/11/17 07:08:44;;;;;;;;;;;10.30;99.90;;;;;;5072978;28;19983;-81
2022/11/17 07:11:12;;;;;;;;;;;10.30;99.90;;;;;;5071250;28;19971;-81
2022/11/17 07:13:39;;;;;;;;;;;10.30;99.90;;;;;;5056639;28;19928;-81
2022/11/17 07:16:08;;;;;;;;;;;10.30;99.90;;;;;;5073348;28;19931;-81
2022/11/17 07:18:35;;;;;;;;;;;10.30;99.90;;;;;;5066087;28;19932;-81
2022/11/17 07:21:03;;;;;;;;;;;10.30;99.90;;;;;;5073311;28;19924;-82
2022/11/17 07:23:30;;;;;;;;;;;10.40;99.90;;;;;;5096904;28;19924;-83
2022/11/17 07:25:58;;;;;;;;;;;10.50;99.90;;;;;;5076192;28;20369;-83
2022/11/17 07:28:25;;;;;;;;;;;10.50;99.90;;;;;;5068219;28;19924;-82
2022/11/17 07:30:52;;;;;;;;;;;10.50;99.90;;;;;;5086732;28;19931;-83
2022/11/17 07:33:19;;;;;;;;;;;10.60;99.90;;;;;;5080852;28;19929;-83
2022/11/17 07:35:47;;;;;;;;;;;10.70;99.90;;;;;;5096428;28;19943;-82
2022/11/17 07:38:13;;;;;;;;;;;10.80;99.90;;;;;;5081510;28;20525;-81
2022/11/17 07:40:40;;;;;;;;;;;10.70;99.90;;;;;;5081457;28;19928;-82
2022/11/17 07:43:08;;;;;;;;;;;10.80;99.90;;;;;;5068027;28;20173;-83
2022/11/17 07:45:36;;;;;;;;;;;10.80;99.90;;;;;;5063177;28;19981;-82
2022/11/17 07:48:05;;;;;;;;;;;10.80;99.90;;;;;;5063413;28;19931;-82
2022/11/17 07:50:33;;;;;;;;;;;10.80;99.90;;;;;;5079908;28;20389;-82
2022/11/17 07:53:00;;;;;;;;;;;10.90;99.90;;;;;;5072449;28;20004;-82
2022/11/17 07:55:26;;;;;;;;;;;10.60;99.90;;;;;;5075995;28;19928;-83
2022/11/17 07:57:57;;;;;;;;;;;10.80;99.90;;;;;;5053337;28;20370;-82
2022/11/17 08:00:26;;;;;;;;;;;10.90;99.90;;;;;;5075950;28;19932;-83
2022/11/17 08:02:52;;;;;;;;;;;10.80;99.90;;;;;;5074766;28;19928;-82
2022/11/17 08:05:19;;;;;;;;;;;10.80;99.90;;;;;;5055710;28;19929;-82
2022/11/17 08:07:46;;;;;;;;;;;10.80;99.90;;;;;;5066564;28;19925;-84
2022/11/17 08:10:13;;;;;;;;;;;10.80;99.90;;;;;;5074821;28;19928;-82
2022/11/17 08:12:40;;;;;;;;;;;10.70;99.90;;;;;;5076126;28;19928;-82
2022/11/17 08:15:08;;;;;;;;;;;10.80;99.90;;;;;;5059754;28;19951;-82
2022/11/17 08:17:36;;;;;;;;;;;10.80;99.90;;;;;;5073954;28;20739;-84
2022/11/17 08:20:03;;;;;;;;;;;10.90;99.90;;;;;;5055013;28;20397;-79
2022/11/17 08:22:30;;;;;;;;;;;10.90;99.90;;;;;;5052205;28;19978;-78
2022/11/17 08:24:57;;;;;;;;;;;10.90;99.90;;;;;;5085493;28;19977;-78
2022/11/17 08:27:24;;;;;;;;;;;10.90;99.90;;;;;;5058795;28;19944;-78
2022/11/17 08:29:50;;;;;;;;;;;10.90;99.90;;;;;;5070425;28;19927;-78
2022/11/17 08:32:17;;;;;;;;;;;10.90;99.90;;;;;;5048116;28;19948;-78
2022/11/17 08:34:45;;;;;;;;;;;10.90;99.90;;;;;;5055289;28;19924;-79
2022/11/17 08:37:12;;;;;;;;;;;10.80;99.90;;;;;;5063451;28;19924;-78
2022/11/17 08:39:39;;;;;;;;;;;10.90;99.90;;;;;;5050066;28;19932;-78
2022/11/17 08:42:05;;;;;;;;;;;10.90;99.90;;;;;;5072955;28;19939;-78
2022/11/17 08:44:32;;;;;;;;;;;10.90;99.90;;;;;;5065442;28;20348;-78
2022/11/17 08:46:59;;;;;;;;;;;10.90;99.90;;;;;;5071770;28;19936;-78
2022/11/17 08:49:26;;;;;;;;;;;10.90;99.90;;;;;;5065781;28;19935;-78
2022/11/17 08:51:55;;;;;;;;;;;10.90;99.90;;;;;;5070851;28;19931;-77
2022/11/17 08:54:22;;;;;;;;;;;10.90;99.90;;;;;;5071408;28;19936;-77
2022/11/17 08:56:48;;;;;;;;;;;10.90;99.90;;;;;;5074634;28;20023;-76
2022/11/17 08:59:17;;;;;;;;;;;10.90;99.90;;;;;;5051209;28;19925;-78
2022/11/17 09:01:44;;;;;;;;;;;11.10;99.90;;;;;;5079007;28;19928;-77
2022/11/17 09:04:11;;;;;;;;;;;11.10;99.90;;;;;;5074179;28;19925;-77
2022/11/17 09:06:37;;;;;;;;;;;11.20;99.90;;;;;;5074298;28;20003;-78
2022/11/17 09:09:06;;;;;;;;;;;11.30;99.90;;;;;;5077909;28;19929;-77
2022/11/17 09:11:32;;;;;;;;;;;11.40;99.90;;;;;;5075327;28;19925;-76
2022/11/17 09:13:59;;;;;;;;;;;11.50;99.90;;;;;;5071049;28;19929;-78
2022/11/17 09:16:27;;;;;;;;;;;11.60;99.90;;;;;;5075081;28;19935;-78
2022/11/17 09:18:55;;;;;;;;;;;11.70;99.90;;;;;;5049757;28;20003;-77
2022/11/17 09:21:22;;;;;;;;;;;11.80;99.90;;;;;;5059321;28;19932;-77
2022/11/17 09:23:48;;;;;;;;;;;11.90;99.90;;;;;;5053409;28;19962;-78
2022/11/17 09:26:17;;;;;;;;;;;12.10;99.90;;;;;;5055789;28;19924;-78
2022/11/17 09:28:44;;;;;;;;;;;12.20;99.90;;;;;;5079185;28;20027;-77
2022/11/17 09:31:11;;;;;;;;;;;12.20;99.90;;;;;;5071712;28;19944;-77
2022/11/17 09:33:38;;;;;;;;;;;12.20;99.90;;;;;;5076659;28;19974;-78
2022/11/17 09:36:06;;;;;;;;;;;12.20;99.90;;;;;;5061404;28;19925;-78
2022/11/17 09:38:33;;;;;;;;;;;12.30;99.90;;;;;;5077249;28;19924;-77
2022/11/17 09:41:00;;;;;;;;;;;12.30;99.90;;;;;;5074192;28;20753;-76
2022/11/17 09:43:30;;;;;;;;;;;12.30;99.90;;;;;;5055085;28;19967;-77
2022/11/17 09:45:59;;;;;;;;;;;12.40;99.90;;;;;;5068543;28;19947;-77
2022/11/17 09:48:36;;;;;;;;;;;12.30;99.90;;;;;;5069550;28;19924;-77
2022/11/17 09:51:04;;;;;;;;;;;12.30;99.90;;;;;;5069391;28;19935;-77
2022/11/17 09:53:37;;;;;;;;;;;12.20;99.90;;;;;;5051016;28;19928;-76
2022/11/17 09:56:07;;;;;;;;;;;12.20;99.90;;;;;;5075434;28;19927;-77
2022/11/17 09:58:37;;;;;;;;;;;12.20;99.90;;;;;;5063190;28;19928;-77
2022/11/17 10:01:04;;;;;;;;;;;12.20;99.90;;;;;;5067187;28;19925;-76
2022/11/17 10:03:32;;;;;;;;;;;12.20;99.90;;;;;;5072479;28;19928;-77
2022/11/17 10:06:00;;;;;;;;;;;12.20;99.90;;;;;;5075093;28;19944;-77
2022/11/17 10:08:31;;;;;;;;;;;12.30;99.90;;;;;;5073702;28;20290;-77
2022/11/17 10:10:58;;;;;;;;;;;12.30;99.90;;;;;;5053737;28;20301;-77
2022/11/17 10:13:28;;;;;;;;;;;12.40;99.90;;;;;;5055238;28;20304;-76
2022/11/17 10:15:58;;;;;;;;;;;12.60;99.90;;;;;;5080137;28;19924;-76
2022/11/17 10:20:53;;;;;;;;;;;12.90;99.90;;;;;;4995981;28;19929;-78
2022/11/17 10:23:22;;;;;;;;;;;12.90;99.90;;;;;;5010882;28;19980;-77
2022/11/17 10:25:55;;;;;;;;;;;13.00;99.90;;;;;;5010637;28;19925;-78
2022/11/17 10:28:24;;;;;;;;;;;13.00;99.90;;;;;;5012225;28;19982;-78
2022/11/17 10:30:59;;;;;;;;;;;13.10;99.90;;;;;;5012326;28;19941;-78
2022/11/17 10:33:33;;;;;;;;;;;13.10;99.90;;;;;;5018829;28;19993;-79
2022/11/17 10:36:00;;;;;;;;;;;13.20;99.90;;;;;;5016872;28;19926;-78
2022/11/17 10:38:28;;;;;;;;;;;13.30;99.90;;;;;;4991992;28;20445;-78
2022/11/17 10:40:57;;;;;;;;;;;13.40;99.90;;;;;;5009572;28;19929;-78
2022/11/17 10:43:25;;;;;;;;;;;13.40;99.90;;;;;;5018356;28;19941;-78
2022/11/17 10:45:53;;;;;;;;;;;13.40;99.90;;;;;;4994865;28;19929;-79
2022/11/17 10:48:25;;;;;;;;;;;13.40;99.90;;;;;;5018312;28;19929;-79
2022/11/17 10:50:53;;;;;;;;;;;13.40;99.90;;;;;;4998424;28;20020;-79
2022/11/17 10:53:28;;;;;;;;;;;13.50;99.90;;;;;;5017878;28;19949;-79
2022/11/17 10:56:01;;;;;;;;;;;13.60;99.90;;;;;;4994686;28;19973;-79
2022/11/17 10:58:28;;;;;;;;;;;13.60;99.90;;;;;;5019688;28;19926;-78
2022/11/17 11:00:56;;;;;;;;;;;13.70;99.90;;;;;;5006048;28;20011;-79
2022/11/17 11:03:26;;;;;;;;;;;13.80;99.90;;;;;;4997051;28;20373;-79
2022/11/17 11:06:00;;;;;;;;;;;13.90;99.90;;;;;;4997948;28;19932;-79
2022/11/17 11:08:29;;;;;;;;;;;13.90;99.90;;;;;;4997287;28;19929;-79
2022/11/17 11:10:58;;;;;;;;;;;13.90;99.90;;;;;;4988906;28;19937;-80
2022/11/17 11:13:28;;;;;;;;;;;13.90;99.90;;;;;;5014466;28;20044;-80
2022/11/17 11:15:56;;;;;;;;;;;13.60;99.90;;;;;;4985199;28;19926;-80
2022/11/17 11:18:23;;;;;;;;;;;13.60;99.90;;;;;;4991551;28;19929;-80
2022/11/17 11:20:56;;;;;;;;;;;13.50;99.90;;;;;;4990723;28;19965;-77
2022/11/17 11:23:28;;;;;;;;;;;13.50;99.90;;;;;;5010521;28;19925;-79
2022/11/17 11:25:57;;;;;;;;;;;13.60;99.90;;;;;;5011109;28;19934;-80
2022/11/17 11:28:33;;;;;;;;;;;13.60;99.90;;;;;;5014644;28;20282;-79
2022/11/17 11:31:05;;;;;;;;;;;13.70;99.90;;;;;;4999005;28;20389;-79
2022/11/17 11:33:35;;;;;;;;;;;13.70;99.90;;;;;;5005618;28;19925;-80
2022/11/17 11:36:13;;;;;;;;;;;13.60;99.90;;;;;;5011255;28;20028;-79
2022/11/17 11:38:55;;;;;;;;;;;13.50;99.90;;;;;;4995819;28;19940;-79
2022/11/17 11:41:34;;;;;;;;;;;13.40;99.90;;;;;;5012333;28;19980;-80
2022/11/17 11:44:10;;;;;;;;;;;13.40;99.90;;;;;;5010748;28;19960;-79
2022/11/17 11:46:46;;;;;;;;;;;13.40;99.90;;;;;;5009159;28;19932;-80
2022/11/17 11:49:15;;;;;;;;;;;13.40;99.90;;;;;;5014810;28;19929;-79
2022/11/17 11:51:46;;;;;;;;;;;13.40;99.90;;;;;;4997600;28;19929;-80
2022/11/17 11:54:16;;;;;;;;;;;12.00;99.90;;;;;;4997604;28;19926;-79
2022/11/17 11:56:44;;;;;;;;;;;13.30;99.90;;;;;;4993496;28;20039;-80
2022/11/17 11:59:15;;;;;;;;;;;13.20;99.90;;;;;;5014824;28;19996;-80
2022/11/17 12:01:46;;;;;;;;;;;13.10;99.90;;;;;;4989534;28;19978;-80
2022/11/17 12:04:19;;;;;;;;;;;13.10;99.90;;;;;;5000188;28;20157;-80
2022/11/17 12:06:53;;;;;;;;;;;13.00;99.90;;;;;;5008530;28;19926;-79
2022/11/17 12:09:33;;;;;;;;;;;13.00;99.90;;;;;;5011408;28;19956;-80
2022/11/17 12:12:01;;;;;;;;;;;13.00;99.90;;;;;;4980539;28;20001;-79
2022/11/17 12:14:28;;;;;;;;;;;13.00;99.90;;;;;;5011812;28;19930;-80
2022/11/17 12:17:01;;;;;;;;;;;13.00;99.90;;;;;;5012471;28;20365;-78
2022/11/17 12:19:47;;;;;;;;;;;13.00;99.90;;;;;;5010184;28;20418;-78
2022/11/17 12:22:20;;;;;;;;;;;13.00;99.90;;;;;;4987669;28;19944;-78
2022/11/17 12:24:47;;;;;;;;;;;12.90;99.90;;;;;;4984842;28;19926;-78
2022/11/17 12:27:32;;;;;;;;;;;12.90;99.90;;;;;;5002185;28;19934;-78
2022/11/17 12:30:00;;;;;;;;;;;12.90;99.90;;;;;;4989792;28;19953;-78
2022/11/17 12:32:45;;;;;;;;;;;12.90;99.90;;;;;;5009856;28;20424;-78
2022/11/17 12:35:23;;;;;;;;;;;12.90;99.90;;;;;;5008128;28;19944;-78
2022/11/17 12:38:11;;;;;;;;;;;12.90;99.90;;;;;;5012025;28;19932;-77
2022/11/17 12:40:42;;;;;;;;;;;12.90;99.90;;;;;;4989464;28;20052;-76
2022/11/17 12:43:22;;;;;;;;;;;12.90;99.90;;;;;;5011457;28;20417;-78
2022/11/17 12:46:01;;;;;;;;;;;12.90;99.90;;;;;;5000622;28;19934;-78
2022/11/17 12:48:30;;;;;;;;;;;12.90;99.90;;;;;;5002665;28;19925;-78
2022/11/17 12:51:07;;;;;;;;;;;13.00;99.90;;;;;;5009707;28;20484;-78
2022/11/17 12:53:42;;;;;;;;;;;13.00;99.90;;;;;;5014349;28;19926;-80
2022/11/17 12:56:18;;;;;;;;;;;13.10;99.90;;;;;;5011462;28;20220;-80
2022/11/17 12:58:51;;;;;;;;;;;13.10;99.90;;;;;;5007703;28;20360;-81
2022/11/17 13:01:22;;;;;;;;;;;13.10;99.90;;;;;;5004943;28;20130;-79
2022/11/17 13:03:52;;;;;;;;;;;13.00;99.90;;;;;;5007381;28;19933;-82
2022/11/17 13:06:19;;;;;;;;;;;13.00;99.90;;;;;;5011325;28;20047;-83
2022/11/17 13:08:56;;;;;;;;;;;13.00;99.90;;;;;;5009626;28;19929;-82
2022/11/17 13:11:23;;;;;;;;;;;12.90;99.90;;;;;;5009038;28;20441;-81
2022/11/17 13:14:05;;;;;;;;;;;12.90;99.90;;;;;;5012995;28;19955;-81
2022/11/17 13:16:32;;;;;;;;;;;13.00;99.90;;;;;;5006779;28;19929;-81
2022/11/17 13:19:00;;;;;;;;;;;13.00;99.90;;;;;;4991852;28;19981;-81
2022/11/17 13:21:28;;;;;;;;;;;13.10;99.90;;;;;;4991853;28;19951;-81
2022/11/17 13:23:58;;;;;;;;;;;13.10;99.90;;;;;;5017977;28;20343;-81
2022/11/17 13:26:25;;;;;;;;;;;13.10;99.90;;;;;;4992071;28;19929;-81
2022/11/17 13:29:02;;;;;;;;;;;13.20;99.90;;;;;;5010833;28;19956;-81
2022/11/17 13:31:29;;;;;;;;;;;13.30;99.90;;;;;;4997247;28;19976;-82
2022/11/17 13:33:59;;;;;;;;;;;13.30;99.90;;;;;;5008200;28;19925;-77
2022/11/17 13:36:26;;;;;;;;;;;13.30;99.90;;;;;;5004498;28;19930;-78
2022/11/17 13:38:56;;;;;;;;;;;13.30;99.90;;;;;;4990706;28;20361;-78
2022/11/17 13:41:25;;;;;;;;;;;13.30;99.90;;;;;;5003492;28;20374;-78
2022/11/17 13:43:52;;;;;;;;;;;13.30;99.90;;;;;;4976946;28;19933;-77
2022/11/17 13:46:19;;;;;;;;;;;13.20;99.90;;;;;;4988673;28;19992;-78
2022/11/17 13:48:46;;;;;;;;;;;13.20;99.90;;;;;;5004264;28;19930;-79
2022/11/17 13:51:26;;;;;;;;;;;13.10;99.90;;;;;;5012253;28;19925;-79
2022/11/17 13:53:54;;;;;;;;;;;13.10;99.90;;;;;;5012474;28;19929;-78
2022/11/17 13:56:24;;;;;;;;;;;13.10;99.90;;;;;;5015398;28;19933;-80
2022/11/17 13:58:51;;;;;;;;;;;13.10;99.90;;;;;;5013898;28;19937;-79
2022/11/17 14:01:23;;;;;;;;;;;13.10;99.90;;;;;;5014735;28;20348;-78
2022/11/17 14:03:50;;;;;;;;;;;13.10;99.90;;;;;;5008355;28;19926;-79
2022/11/17 14:06:17;;;;;;;;;;;13.20;99.90;;;;;;5011262;28;19941;-79
2022/11/17 14:09:01;;;;;;;;;;;13.10;99.90;;;;;;4997616;28;20385;-78
2022/11/17 14:11:30;;;;;;;;;;;13.10;99.90;;;;;;5020610;28;19933;-78
2022/11/17 14:13:59;;;;;;;;;;;13.10;99.90;;;;;;5016522;28;19930;-78
2022/11/17 14:16:27;;;;;;;;;;;13.10;99.90;;;;;;5005598;28;19925;-79
2022/11/17 14:18:55;;;;;;;;;;;13.10;99.90;;;;;;4995938;28;19929;-79
2022/11/17 14:21:22;;;;;;;;;;;13.10;99.90;;;;;;4998375;28;19926;-78
2022/11/17 14:23:49;;;;;;;;;;;13.00;99.90;;;;;;5006138;28;20003;-77
2022/11/17 14:26:18;;;;;;;;;;;13.00;99.90;;;;;;5011954;28;19929;-78
2022/11/17 14:28:46;;;;;;;;;;;13.00;99.90;;;;;;5001309;28;20060;-78
2022/11/17 14:31:13;;;;;;;;;;;12.90;99.90;;;;;;5016562;28;19929;-78
2022/11/17 14:33:40;;;;;;;;;;;13.00;99.90;;;;;;4996854;28;20122;-78
2022/11/17 14:36:10;;;;;;;;;;;12.90;99.90;;;;;;4998981;28;20000;-78
2022/11/17 14:38:37;;;;;;;;;;;12.90;99.90;;;;;;5013749;28;19926;-78
2022/11/17 14:41:04;;;;;;;;;;;12.90;99.90;;;;;;5013403;28;19926;-77
2022/11/17 14:43:31;;;;;;;;;;;12.90;99.90;;;;;;5008621;28;19926;-77
2022/11/17 14:46:00;;;;;;;;;;;12.90;99.90;;;;;;4995998;28;20325;-78
2022/11/17 14:48:27;;;;;;;;;;;12.90;99.90;;;;;;5011221;28;20452;-78
2022/11/17 14:50:57;;;;;;;;;;;12.80;99.90;;;;;;5011785;28;19940;-77
2022/11/17 14:53:25;;;;;;;;;;;12.80;99.90;;;;;;5014256;28;19937;-78
2022/11/17 14:55:52;;;;;;;;;;;12.80;99.90;;;;;;5011170;28;20013;-78
2022/11/17 14:58:19;;;;;;;;;;;12.80;99.90;;;;;;5006083;28;19933;-77
2022/11/17 15:00:50;;;;;;;;;;;12.80;99.90;;;;;;5001423;28;20045;-78